الصفحة الرئيسية
METAR-TAF:

METAR-TAF

مطار :

ميسا, أريزونا, الولايات المتحدة

دائرة عرض: 33-28N, خط طول: 111-44W, ارتفاع: 424 متر

مراقبة الطقس الحالي

تاريخ ووقت الإصدار 40 دقيقة قبل الساعة 09:54UTC
ريح 4 عقدة من الشرق/الشمال الشرقي
درجة الحرارة 29°درجة مئوية
الرطوبة 18%
ضغط 1015 hPa
الرؤية: 16.1 كم
سماء صافية

METAR: KFFZ 290954Z AUTO 06004KT 10SM CLR 29/02 A2998 RMK AO2 SLP127 T02890022 $

زمن: 03:34 (10:34 UTC)


TAF: مفقودة

أرصاد الطقس والتوقعات من أكثر من 4000 مطار (تقارير الطقس للمطار METAR والتنبؤ بالطقس بالمطارTAF).

المحطات المتاحة هي النقط الصفراء والحمراء على الخريطة.

حرك المؤشر فوق النقطة لمعرفة اسم المحطة.

ثم انقر لمعرفة أرصاد وتوقعات الطقس.

لتغيير الخارطة: اضغط على الأزرار الخضراء مع رمز الصليب الأسود للتكبير. على الزر الأخضر مع شرطة للتصغير، أو على الأسهم الخضراء للخرائط المجاورة.


METAR-TAF: